»·PEaware :: N4306H KSNA-KRNM

N4306H :: KSNA-KRNM

FLIGHT INFORMATION

Flight Status: Arrived
Operator: Privately registered:
United States
More flights under this callsign
Pilot: Lauro R. (32390)
Aircraft: CESSNA 172 SKYHAWK
(C172)
More flights by this aircraft type
Origin: KSNA John Wayne-Orange Co
United States
Destination: KRNM Ramona
United States
More flights between these airports :: More routes between these airports
Route: +V23 OCN V208 JLI
File this flight plan on PilotEdge
Remarks:
Altitude:
(Current/Filed)
7,000ft
Speed:
(Current/Filed)
110kts
Departed: 12-Nov-20 06:06 PM
Arrived: 12-Nov-20 06:44 PM
Distance/Time
Traveled:
61nm/0:38
Distance/Time
To Go:
Arrived

Flight Plot

Page will automatically refresh every two minutes.


Map Options




Map Legend


Flown Route
Filed Route
Departure Airport
Arrival Airport
Navaid (VOR, NDB)
Fix

Horizontal Profiles

Position Reports

Time Latitude Longitude Heading Altitude Ground
Speed
12-Nov-20 17:40 33.667170 -117.872136 225 60ft 0kts
12-Nov-20 17:41 33.667170 -117.872136 225 60ft 0kts
12-Nov-20 17:42 33.667170 -117.872136 225 60ft 0kts
12-Nov-20 17:43 33.667170 -117.872136 225 60ft 0kts
12-Nov-20 17:44 33.667170 -117.872136 225 60ft 0kts
12-Nov-20 17:45 33.667170 -117.872136 225 60ft 0kts
12-Nov-20 17:46 33.667170 -117.872136 225 60ft 0kts
12-Nov-20 17:47 33.667170 -117.872136 225 60ft 0kts
12-Nov-20 17:48 33.667170 -117.872136 225 60ft 0kts
12-Nov-20 17:49 33.667170 -117.872136 225 60ft 0kts
12-Nov-20 17:50 33.667170 -117.872136 225 60ft 0kts
12-Nov-20 17:51 33.667170 -117.872136 225 60ft 0kts
12-Nov-20 17:52 33.667170 -117.872136 225 60ft 0kts
12-Nov-20 17:53 33.667170 -117.872136 225 60ft 0kts
12-Nov-20 17:54 33.667170 -117.872136 225 60ft 0kts
12-Nov-20 17:55 33.667170 -117.872136 225 60ft 0kts
12-Nov-20 17:57 33.667170 -117.872136 225 60ft 0kts
12-Nov-20 17:58 33.667170 -117.872136 225 60ft 0kts
12-Nov-20 17:59 33.667170 -117.872136 225 60ft 0kts
12-Nov-20 18:00 33.667170 -117.872136 225 60ft 0kts
12-Nov-20 18:01 33.667170 -117.872136 225 60ft 0kts
12-Nov-20 18:02 33.667170 -117.872136 225 60ft 0kts
12-Nov-20 18:03 33.667170 -117.872136 225 60ft 0kts
12-Nov-20 18:04 33.667547 -117.872855 315 60ft 7kts
12-Nov-20 18:05 33.670392 -117.869608 43 60ft 36kts
12-Nov-20 18:06 33.677728 -117.864783 27 60ft 42kts
12-Nov-20 18:07 33.680083 -117.863473 256 60ft 0kts
12-Nov-20 18:08 33.680056 -117.863632 267 60ft 0kts
12-Nov-20 18:09 33.680056 -117.863632 267 60ft 0kts
12-Nov-20 18:10 33.680056 -117.863632 267 60ft 0kts
12-Nov-20 18:11 33.679971 -117.864227 220 60ft 19kts
12-Nov-20 18:12 33.660947 -117.874501 197 848ft 81kts
12-Nov-20 18:13 33.635889 -117.881452 192 1602ft 103kts
12-Nov-20 18:14 33.607120 -117.888045 192 2307ft 106kts
12-Nov-20 18:14 33.586106 -117.881128 113 2888ft 111kts
12-Nov-20 18:16 33.575564 -117.839898 109 3706ft 109kts
12-Nov-20 18:16 33.568705 -117.810760 94 4286ft 109kts
12-Nov-20 18:17 33.562412 -117.782527 171 4980ft 98kts
12-Nov-20 18:18 33.538374 -117.767341 143 5681ft 100kts
12-Nov-20 18:19 33.518267 -117.744623 140 6381ft 98kts
12-Nov-20 18:20 33.498944 -117.722046 140 6962ft 107kts
12-Nov-20 18:21 33.473916 -117.692815 138 6886ft 132kts
12-Nov-20 18:22 33.447272 -117.661623 137 6891ft 134kts
12-Nov-20 18:23 33.420378 -117.630178 137 6895ft 135kts
12-Nov-20 18:24 33.393392 -117.598649 136 6900ft 136kts
12-Nov-20 18:25 33.366313 -117.567043 136 6905ft 136kts
12-Nov-20 18:26 33.339157 -117.535379 136 6908ft 136kts
12-Nov-20 18:27 33.311909 -117.503666 137 6889ft 136kts
12-Nov-20 18:28 33.283972 -117.472917 138 6890ft 136kts
12-Nov-20 18:29 33.262215 -117.436920 109 6890ft 136kts
12-Nov-20 18:30 33.249162 -117.394253 109 6890ft 137kts
12-Nov-20 18:31 33.235984 -117.351531 109 6890ft 137kts
12-Nov-20 18:32 33.222851 -117.309240 110 6888ft 136kts
12-Nov-20 18:33 33.197504 -117.277618 107 6887ft 136kts
12-Nov-20 18:34 33.184949 -117.235443 119 6889ft 136kts
12-Nov-20 18:35 33.165221 -117.193486 119 6149ft 149kts
12-Nov-20 18:36 33.144590 -117.150653 119 5050ft 148kts
12-Nov-20 18:37 33.125124 -117.110916 119 4699ft 115kts
12-Nov-20 18:38 33.107932 -117.075731 119 4891ft 134kts
12-Nov-20 18:39 33.089009 -117.036525 119 4891ft 136kts
12-Nov-20 18:40 33.070688 -116.998090 120 4799ft 108kts
12-Nov-20 18:41 33.049711 -116.965585 125 2491ft 140kts
12-Nov-20 18:42 33.041677 -116.932411 97 1609ft 67kts
12-Nov-20 18:43 33.039151 -116.915120 100 1392ft 35kts
12-Nov-20 18:44 33.039241 -116.912156 334 1392ft 0kts
12-Nov-20 18:45 33.039682 -116.911707 10 1394ft 13kts
12-Nov-20 18:46 33.040368 -116.911611 1 1395ft 0kts
12-Nov-20 18:47 33.040368 -116.911611 1 1395ft 0kts
12-Nov-20 18:48 33.040368 -116.911611 1 1395ft 0kts
12-Nov-20 18:49 33.040368 -116.911611 1 1395ft 0kts
12-Nov-20 18:50 33.040368 -116.911611 1 1395ft 0kts
12-Nov-20 18:51 33.040368 -116.911611 1 1395ft 0kts
12-Nov-20 18:52 33.040403 -116.911612 357 1395ft 0kts
12-Nov-20 18:53 33.040403 -116.911612 357 1395ft 0kts
12-Nov-20 18:54 33.040403 -116.911612 357 1395ft 0kts
12-Nov-20 18:55 33.040403 -116.911612 357 1395ft 0kts
12-Nov-20 18:56 33.040403 -116.911612 357 1395ft 0kts
12-Nov-20 18:57 33.040403 -116.911612 357 1395ft 0kts

Navigation Log

Ident Type
Flight plan parsing failed, navigation log unavailable